Time;durP1;ratioP1;P1;durP2;ratioP2;P2;SDS_P1;SDS_P2;PMS_P1;PMS_P2;Temp;Humidity;BMP_temperature;BMP_pressure;BME280_temperature;BME280_humidity;BME280_pressure;Samples;Min_cycle;Max_cycle;Signal;HPM_P1;HPM_P2
2022/03/10 11:14:25;;;;;;;4.67;2.98;;;;;;;26.07;21.22;101413.83;1837591;76;22779;-59
2022/03/10 11:16:53;;;;;;;4.87;2.90;;;;;;;26.00;21.75;101428.90;1813277;79;22637;-59
2022/03/10 11:19:25;;;;;;;4.12;2.52;;;;;;;26.00;22.05;101434.48;1817028;78;21602;-61
2022/03/10 11:22:30;;;;;;;4.50;2.87;;;;;;;25.93;22.19;101428.61;1816985;78;21466;-60
2022/03/10 11:25:19;;;;;;;3.20;2.60;;;;;;;25.82;22.25;101424.59;1804364;78;21418;-60
2022/03/10 11:28:16;;;;;;;3.87;3.00;;;;;;;25.70;22.33;101414.77;1808032;78;20882;-63
2022/03/10 11:30:43;;;;;;;4.05;2.95;;;;;;;25.57;22.40;101409.67;1798937;78;22456;-57
2022/03/10 11:33:16;;;;;;;3.90;2.58;;;;;;;25.50;22.44;101402.98;1750203;78;23248;-59
2022/03/10 11:35:44;;;;;;;4.33;3.10;;;;;;;25.46;22.44;101402.84;1809670;78;21390;-59
2022/03/10 11:38:11;;;;;;;5.05;2.80;;;;;;;25.41;22.41;101401.06;1797965;78;21055;-60
2022/03/10 11:40:47;;;;;;;4.15;3.10;;;;;;;25.35;22.31;101411.31;1808299;78;21551;-63
2022/03/10 11:43:30;;;;;;;3.70;2.77;;;;;;;25.26;22.29;101410.54;1814622;78;22712;-61
2022/03/10 11:46:21;;;;;;;4.17;2.77;;;;;;;25.18;22.29;101410.00;1797828;78;21833;-63
2022/03/10 11:49:12;;;;;;;5.20;3.22;;;;;;;25.12;22.28;101413.54;1821755;78;21604;-61
2022/03/10 11:51:56;;;;;;;4.17;3.17;;;;;;;25.10;22.25;101399.72;1805836;78;21083;-63
2022/03/10 11:54:27;;;;;;;3.60;2.90;;;;;;;25.05;22.18;101404.08;1808229;79;21382;-63
2022/03/10 11:56:58;;;;;;;;;;;;;;;24.95;22.10;101401.11;1818227;78;22445;-62
2022/03/10 11:59:39;;;;;;;5.22;2.70;;;;;;;24.86;22.14;101395.57;1822248;78;21306;-62
2022/03/10 12:02:05;;;;;;;;;;;;;;;24.88;22.24;101398.00;1823043;78;20932;-64
2022/03/10 12:04:38;;;;;;;4.22;2.83;;;;;;;24.83;22.24;101392.01;1822435;78;20158;-61
2022/03/10 12:07:05;;;;;;;4.40;3.08;;;;;;;24.78;22.29;101402.52;1821751;78;21002;-62
2022/03/10 12:09:41;;;;;;;4.00;2.33;;;;;;;24.69;22.17;101402.55;1806792;78;22514;-62
2022/03/10 12:12:20;;;;;;;4.33;2.50;;;;;;;24.61;22.06;101397.00;1802764;78;21383;-62
2022/03/10 12:14:47;;;;;;;3.08;2.70;;;;;;;24.55;21.98;101395.78;1816832;78;21076;-61
2022/03/10 12:17:55;;;;;;;3.80;2.70;;;;;;;24.50;21.89;101393.16;1816743;79;20873;-63
2022/03/10 12:20:21;;;;;;;5.12;3.05;;;;;;;24.44;21.81;101401.42;1815571;79;21078;-61
2022/03/10 12:23:15;;;;;;;5.08;2.72;;;;;;;24.41;21.78;101405.44;1758963;79;22553;-61
2022/03/10 12:25:48;;;;;;;3.45;3.02;;;;;;;24.37;21.72;101408.63;1761931;80;21219;-61
2022/03/10 12:28:37;;;;;;;3.42;2.70;;;;;;;24.32;21.68;101411.58;1767111;80;20835;-63
2022/03/10 12:31:14;;;;;;;4.28;3.05;;;;;;;24.30;21.63;101423.62;1780560;80;20993;-64
2022/03/10 12:34:00;;;;;;;6.95;2.95;;;;;;;24.26;21.57;101426.24;1780753;80;20982;-62
2022/03/10 12:36:51;;;;;;;4.50;2.50;;;;;;;24.21;21.53;101441.70;1767764;80;22469;-60
2022/03/10 12:39:19;;;;;;;3.90;2.80;;;;;;;24.19;21.52;101453.70;1753989;81;21145;-61
2022/03/10 12:41:54;;;;;;;3.02;2.50;;;;;;;24.18;21.52;101454.05;1773201;80;21041;-60
2022/03/10 12:44:24;;;;;;;3.52;2.47;;;;;;;24.18;21.54;101452.66;1761161;79;21010;-61
2022/03/10 12:46:52;;;;;;;4.40;2.35;;;;;;;24.16;21.52;101441.84;1779341;80;21424;-62
2022/03/10 12:49:42;;;;;;;3.45;2.47;;;;;;;24.14;21.50;101445.52;1759459;80;23155;-62
2022/03/10 12:52:11;;;;;;;3.30;2.47;;;;;;;24.13;21.48;101439.70;1775704;80;21551;-61
2022/03/10 12:54:42;;;;;;;3.10;2.33;;;;;;;24.09;21.47;101440.93;1776939;80;20864;-60
2022/03/10 12:57:08;;;;;;;4.00;2.50;;;;;;;24.08;21.47;101440.67;1769164;80;20967;-61
2022/03/10 12:59:36;;;;;;;4.62;2.87;;;;;;;24.15;21.42;101436.03;1751154;80;21071;-60
2022/03/10 13:02:18;;;;;;;2.80;2.52;;;;;;;24.24;21.35;101432.69;1770181;81;23343;-60
2022/03/10 13:04:52;;;;;;;2.75;2.27;;;;;;;24.37;21.28;101444.22;1770555;81;21403;-60
2022/03/10 13:07:18;;;;;;;3.62;2.87;;;;;;;24.47;21.20;101454.20;1749152;80;21126;-60
2022/03/10 13:09:54;;;;;;;4.90;2.83;;;;;;;24.57;21.14;101452.45;1718402;83;20905;-61
2022/03/10 13:12:39;;;;;;;3.02;2.25;;;;;;;24.59;21.09;101457.13;1744468;82;21043;-59
2022/03/10 13:15:07;;;;;;;3.42;2.40;;;;;;;24.61;21.03;101447.90;1741501;82;22567;-62
2022/03/10 13:17:36;;;;;;;4.58;2.90;;;;;;;24.67;21.01;101448.52;1748009;81;21133;-61
2022/03/10 13:20:16;;;;;;;4.60;2.52;;;;;;;24.73;20.97;101452.21;1724648;81;21072;-61
2022/03/10 13:22:57;;;;;;;3.30;2.65;;;;;;;24.82;20.89;101442.45;1754021;81;21300;-60
2022/03/10 13:25:25;;;;;;;3.90;2.65;;;;;;;24.91;20.84;101451.61;1757047;81;21602;-60
2022/03/10 13:27:52;;;;;;;3.05;2.70;;;;;;;24.97;20.79;101447.51;1756701;81;22411;-60
2022/03/10 13:30:25;;;;;;;3.70;2.67;;;;;;;25.05;20.72;101443.87;1756098;81;22027;-62
2022/03/10 13:32:54;;;;;;;5.92;2.85;;;;;;;25.13;20.63;101438.03;1746090;81;20945;-62
2022/03/10 13:35:22;;;;;;;3.50;2.80;;;;;;;25.23;20.54;101441.85;1752661;80;21411;-60
2022/03/10 13:37:48;;;;;;;4.17;2.62;;;;;;;25.34;20.45;101438.35;1719968;80;20941;-60
2022/03/10 13:40:15;;;;;;;3.87;2.83;;;;;;;25.42;20.34;101437.48;1777406;80;22488;-61
2022/03/10 13:42:48;;;;;;;3.92;2.80;;;;;;;25.54;20.29;101443.80;1774458;80;22424;-61
2022/03/10 13:45:14;;;;;;;4.70;3.00;;;;;;;25.65;20.22;101436.67;1727236;80;20965;-62
2022/03/10 13:48:00;;;;;;;3.90;2.60;;;;;;;25.75;20.14;101438.26;1744576;81;21026;-62
2022/03/10 13:50:32;;;;;;;6.08;3.05;;;;;;;25.85;20.08;101442.03;1742815;81;21049;-60
2022/03/10 13:53:06;;;;;;;3.37;2.45;;;;;;;25.94;20.07;101444.19;1746347;81;22492;-61
2022/03/10 13:55:39;;;;;;;3.30;2.37;;;;;;;26.03;19.99;101442.16;1764985;80;20908;-50
2022/03/10 13:58:05;;;;;;;3.90;3.15;;;;;;;26.07;20.04;101441.71;1772323;80;20884;-49
2022/03/10 14:00:34;;;;;;;5.58;2.67;;;;;;;26.07;20.05;101431.13;1779420;80;20989;-52
2022/03/10 14:03:08;;;;;;;3.75;2.80;;;;;;;26.08;20.04;101439.17;1772333;80;21689;-52
2022/03/10 14:05:53;;;;;;;3.40;2.50;;;;;;;26.05;19.99;101444.04;1766583;81;22381;-54
2022/03/10 14:08:24;;;;;;;4.72;2.70;;;;;;;25.99;20.00;101445.38;1753253;81;21235;-52
2022/03/10 14:11:03;;;;;;;4.37;2.80;;;;;;;25.90;20.02;101442.66;1752304;81;21505;-53
2022/03/10 14:13:33;;;;;;;3.60;2.85;;;;;;;25.83;19.99;101456.33;1768577;80;21083;-52
2022/03/10 14:16:01;;;;;;;3.90;2.42;;;;;;;25.74;20.00;101443.02;1740684;80;20960;-51
2022/03/10 14:18:27;;;;;;;3.10;2.40;;;;;;;25.67;20.02;101456.67;1758034;80;23309;-50
2022/03/10 14:20:58;;;;;;;3.92;2.70;;;;;;;25.61;20.03;101459.97;1740938;81;21093;-55
2022/03/10 14:23:25;;;;;;;3.37;2.33;;;;;;;25.54;20.06;101459.69;1754151;81;21058;-49
2022/03/10 14:25:54;;;;;;;3.80;2.25;;;;;;;25.47;20.05;101451.81;1770332;79;20940;-49
2022/03/10 14:28:36;;;;;;;4.62;2.90;;;;;;;25.43;20.05;101475.34;1809845;78;20996;-51
2022/03/10 14:31:17;;;;;;;4.67;2.90;;;;;;;25.37;20.02;101466.13;1787948;78;22393;-55
2022/03/10 14:33:45;;;;;;;3.52;2.50;;;;;;;25.32;20.07;101469.92;1808331;78;21186;-50
2022/03/10 14:36:13;;;;;;;4.08;2.60;;;;;;;25.28;20.05;101480.66;1813711;78;20943;-54
2022/03/10 14:38:40;;;;;;;5.67;2.60;;;;;;;25.25;20.06;101495.27;1808241;78;20989;-53
2022/03/10 14:41:07;;;;;;;2.75;2.42;;;;;;;25.20;20.07;101499.05;1797395;78;20938;-56
2022/03/10 14:43:34;;;;;;;3.80;2.50;;;;;;;25.17;20.08;101503.86;1819093;78;21749;-51
2022/03/10 14:46:02;;;;;;;6.75;2.90;;;;;;;25.16;20.07;101515.36;1808780;78;21087;-52
2022/03/10 14:48:28;;;;;;;4.45;2.60;;;;;;;25.19;20.10;101513.29;1812612;79;20956;-52
2022/03/10 14:50:54;;;;;;;2.90;2.25;;;;;;;25.23;20.08;101529.58;1816016;78;20835;-49
2022/03/10 14:53:21;;;;;;;3.67;2.85;;;;;;;25.21;20.10;101522.11;1807243;78;21398;-48
2022/03/10 14:55:48;;;;;;;3.85;2.20;;;;;;;25.17;20.13;101516.97;1813517;79;22435;-49
2022/03/10 14:58:14;;;;;;;4.58;2.50;;;;;;;25.11;20.12;101514.13;1810175;78;21164;-49
2022/03/10 15:00:40;;;;;;;4.05;2.87;;;;;;;25.06;20.16;101515.13;1808333;78;21125;-52
2022/03/10 15:03:06;;;;;;;4.37;2.50;;;;;;;25.00;20.21;101516.44;1807568;78;21718;-57
2022/03/10 15:05:34;;;;;;;6.53;2.90;;;;;;;24.97;20.25;101511.53;1800365;78;20955;-57
2022/03/10 15:08:01;;;;;;;6.55;2.55;;;;;;;24.95;20.31;101511.06;1801567;78;23268;-53
2022/03/10 15:10:27;;;;;;;16.87;6.70;;;;;;;24.93;20.38;101512.77;1809181;79;21090;-58
2022/03/10 15:12:55;;;;;;;2.87;1.90;;;;;;;24.96;20.44;101519.06;1802192;78;21662;-56
2022/03/10 15:15:22;;;;;;;5.22;2.20;;;;;;;24.98;20.48;101511.78;1779055;78;21031;-59
2022/03/10 15:17:48;;;;;;;4.50;2.60;;;;;;;25.05;20.50;101514.05;1812746;79;21481;-58
2022/03/10 15:20:16;;;;;;;3.30;2.60;;;;;;;25.15;20.51;101515.11;1762682;80;22405;-57
2022/03/10 15:23:02;;;;;;;3.33;2.47;;;;;;;25.26;20.51;101519.98;1765857;80;22109;-59
